Time;durP1;ratioP1;P1;durP2;ratioP2;P2;SDS_P1;SDS_P2;PMS_P1;PMS_P2;Temp;Humidity;BMP_temperature;BMP_pressure;BME280_temperature;BME280_humidity;BME280_pressure;Samples;Min_cycle;Max_cycle;Signal;HPM_P1;HPM_P2
2021/08/06 00:01:46;;;;;;;3.63;2.37;;;14.30;99.90;;;;;;4424981;28;656765;-70
2021/08/06 00:04:33;;;;;;;4.93;2.30;;;14.30;99.90;;;;;;4392727;28;657044;-70
2021/08/06 00:07:21;;;;;;;2.10;1.90;;;14.30;99.90;;;;;;4427853;28;656504;-70
2021/08/06 00:10:10;;;;;;;3.20;1.87;;;14.30;99.90;;;;;;4394467;28;656622;-70
2021/08/06 00:12:59;;;;;;;2.50;1.90;;;14.20;99.90;;;;;;4411920;28;656855;-70
2021/08/06 00:15:46;;;;;;;2.17;1.67;;;14.30;99.90;;;;;;4399042;28;657607;-70
2021/08/06 00:18:34;;;;;;;2.20;1.90;;;14.20;99.90;;;;;;4397424;28;656995;-70
2021/08/06 00:21:21;;;;;;;1.93;1.53;;;14.20;99.90;;;;;;4427322;28;656926;-70
2021/08/06 00:24:09;;;;;;;4.80;1.47;;;14.20;99.90;;;;;;4399302;28;657272;-71
2021/08/06 00:26:56;;;;;;;1.40;1.30;;;14.20;99.90;;;;;;4419475;28;656884;-70
2021/08/06 00:29:45;;;;;;;2.87;1.53;;;14.20;99.90;;;;;;4399985;28;657312;-70
2021/08/06 00:32:33;;;;;;;1.40;1.30;;;14.10;99.90;;;;;;4422979;28;656801;-70
2021/08/06 00:35:21;;;;;;;3.20;1.43;;;14.10;99.90;;;;;;4445362;28;657353;-70
2021/08/06 00:38:08;;;;;;;1.13;1.10;;;14.10;99.90;;;;;;4403407;28;657302;-70
2021/08/06 00:40:56;;;;;;;3.23;1.40;;;14.10;99.90;;;;;;4420641;28;656397;-70
2021/08/06 00:43:43;;;;;;;1.60;1.33;;;14.10;99.90;;;;;;4414744;28;657365;-70
2021/08/06 00:46:32;;;;;;;1.40;1.30;;;14.10;99.90;;;;;;4443697;28;658076;-70
2021/08/06 00:49:20;;;;;;;1.20;1.10;;;14.10;99.90;;;;;;4410421;28;656684;-70
2021/08/06 00:52:08;;;;;;;1.33;1.23;;;14.10;99.90;;;;;;4431372;28;657143;-70
2021/08/06 00:54:56;;;;;;;1.77;1.10;;;14.10;99.90;;;;;;4420354;28;657031;-70
2021/08/06 00:57:43;;;;;;;1.50;1.17;;;14.10;99.90;;;;;;4401576;28;656522;-70
2021/08/06 01:00:31;;;;;;;3.03;1.10;;;14.10;99.90;;;;;;4421951;28;657057;-70
2021/08/06 01:03:23;;;;;;;0.93;0.93;;;14.10;99.90;;;;;;4408084;28;656987;-70
2021/08/06 01:06:12;;;;;;;1.10;1.00;;;14.10;99.90;;;;;;4395102;28;657703;-70
2021/08/06 01:09:01;;;;;;;1.00;1.00;;;14.10;99.90;;;;;;4407861;28;657372;-70
2021/08/06 01:11:51;;;;;;;1.20;1.10;;;14.10;99.90;;;;;;4414573;28;656996;-70
2021/08/06 01:14:40;;;;;;;1.47;1.10;;;14.10;99.90;;;;;;4407163;28;656812;-70
2021/08/06 01:17:29;;;;;;;1.70;1.03;;;14.10;99.90;;;;;;4418315;28;656283;-70
2021/08/06 01:20:21;;;;;;;1.30;1.17;;;14.10;99.90;;;;;;4432546;28;656370;-70
2021/08/06 01:23:13;;;;;;;0.90;0.80;;;14.10;99.90;;;;;;4413505;28;656712;-70
2021/08/06 01:26:03;;;;;;;1.27;1.17;;;14.10;99.90;;;;;;4393043;28;657988;-70
2021/08/06 01:28:51;;;;;;;3.90;1.27;;;14.10;99.90;;;;;;4400490;28;657202;-70
2021/08/06 01:31:38;;;;;;;1.20;1.10;;;14.20;99.90;;;;;;4408555;28;656474;-70
2021/08/06 01:34:26;;;;;;;0.93;0.93;;;14.10;99.90;;;;;;4434273;28;657551;-70
2021/08/06 01:37:13;;;;;;;3.73;1.50;;;14.10;99.90;;;;;;4407928;28;657193;-70
2021/08/06 01:40:01;;;;;;;1.30;1.20;;;14.10;99.90;;;;;;4421508;28;657558;-70
2021/08/06 01:42:53;;;;;;;1.40;1.30;;;14.10;99.90;;;;;;4406042;28;656958;-70
2021/08/06 01:45:43;;;;;;;1.30;1.10;;;14.00;99.90;;;;;;4400669;28;657880;-71
2021/08/06 01:48:36;;;;;;;4.30;1.40;;;14.00;99.90;;;;;;4401714;28;656908;-73
2021/08/06 01:51:25;;;;;;;1.23;1.13;;;14.00;99.90;;;;;;4412695;28;657442;-73
2021/08/06 01:54:14;;;;;;;1.73;1.40;;;13.90;99.90;;;;;;4427065;28;656558;-72
2021/08/06 01:57:04;;;;;;;1.60;1.30;;;14.00;99.90;;;;;;4425306;28;656403;-73
2021/08/06 01:59:54;;;;;;;1.77;1.17;;;14.00;99.90;;;;;;4398082;28;656215;-73
2021/08/06 02:02:43;;;;;;;1.63;1.40;;;13.90;99.90;;;;;;4399995;28;656905;-73
2021/08/06 02:05:32;;;;;;;1.43;1.20;;;13.90;99.90;;;;;;4405492;28;656739;-73
2021/08/06 02:08:21;;;;;;;2.40;1.50;;;13.90;99.90;;;;;;4421256;28;657560;-73
2021/08/06 02:11:10;;;;;;;1.73;1.43;;;13.90;99.90;;;;;;4404440;28;656679;-72
2021/08/06 02:13:59;;;;;;;1.63;1.37;;;13.90;99.90;;;;;;4432673;28;656738;-73
2021/08/06 02:16:51;;;;;;;1.90;1.70;;;13.90;99.90;;;;;;4448193;28;656200;-73
2021/08/06 02:19:40;;;;;;;1.90;1.70;;;13.90;99.90;;;;;;4415662;28;656711;-72
2021/08/06 02:22:28;;;;;;;2.85;1.65;;;13.90;99.90;;;;;;4434133;28;656582;-72
2021/08/06 02:25:16;;;;;;;1.50;1.40;;;13.80;99.90;;;;;;4445911;28;657443;-73
2021/08/06 02:28:04;;;;;;;1.73;1.63;;;13.80;99.90;;;;;;4396952;28;656632;-73
2021/08/06 02:30:51;;;;;;;1.53;1.43;;;13.80;99.90;;;;;;4422207;28;657480;-73
2021/08/06 02:33:40;;;;;;;2.10;1.90;;;13.80;99.90;;;;;;4402623;28;656463;-74
2021/08/06 02:36:28;;;;;;;5.13;1.90;;;13.80;99.90;;;;;;4419098;28;656757;-73
2021/08/06 02:39:17;;;;;;;1.80;1.70;;;13.80;99.90;;;;;;4416680;28;657026;-72
2021/08/06 02:42:05;;;;;;;2.40;1.93;;;13.70;99.90;;;;;;4404013;28;657707;-73
2021/08/06 02:44:56;;;;;;;2.67;2.47;;;13.70;99.90;;;;;;4410178;28;656335;-72
2021/08/06 02:47:44;;;;;;;3.77;2.50;;;13.60;99.90;;;;;;4395286;28;657143;-73
2021/08/06 02:50:35;;;;;;;5.07;2.63;;;13.60;99.90;;;;;;4428459;28;657275;-71
2021/08/06 02:53:24;;;;;;;2.93;2.47;;;13.60;99.90;;;;;;4385680;28;656866;-72
2021/08/06 02:56:15;;;;;;;3.63;2.80;;;13.60;99.90;;;;;;4429706;28;656285;-73
2021/08/06 02:59:06;;;;;;;3.23;2.50;;;13.50;99.90;;;;;;4386251;28;656691;-72
2021/08/06 03:01:57;;;;;;;2.60;2.40;;;13.50;99.90;;;;;;4404854;28;657822;-72
2021/08/06 03:04:49;;;;;;;2.90;2.30;;;13.50;99.90;;;;;;4408696;28;656662;-73
2021/08/06 03:07:41;;;;;;;4.33;2.70;;;13.40;99.90;;;;;;4398451;28;657421;-72
2021/08/06 03:10:33;;;;;;;2.70;2.33;;;13.40;99.90;;;;;;4395900;28;656810;-70
2021/08/06 03:13:24;;;;;;;2.70;2.50;;;13.40;99.90;;;;;;4408209;28;657183;-70
2021/08/06 03:16:15;;;;;;;3.73;2.10;;;13.40;99.90;;;;;;4403507;28;656838;-70
2021/08/06 03:19:04;;;;;;;2.60;2.40;;;13.40;99.90;;;;;;4397459;28;656306;-70
2021/08/06 03:21:53;;;;;;;3.83;2.87;;;13.30;99.90;;;;;;4395851;28;657224;-70
2021/08/06 03:24:48;;;;;;;3.27;2.67;;;13.30;99.90;;;;;;4396920;28;656803;-70
2021/08/06 03:27:42;;;;;;;5.20;2.67;;;13.30;99.90;;;;;;4400383;28;657577;-68
2021/08/06 03:30:31;;;;;;;3.90;3.00;;;13.30;99.90;;;;;;4378842;28;656797;-71
2021/08/06 03:33:24;;;;;;;8.18;2.75;;;13.20;99.90;;;;;;4403354;28;656743;-70
2021/08/06 03:36:15;;;;;;;3.87;2.37;;;13.30;99.90;;;;;;4399064;28;656407;-70
2021/08/06 03:39:03;;;;;;;5.70;2.90;;;13.30;99.90;;;;;;4393069;28;656504;-70
2021/08/06 03:41:52;;;;;;;4.53;2.67;;;13.30;99.90;;;;;;4430412;28;656356;-70
2021/08/06 03:44:40;;;;;;;4.23;2.50;;;13.30;99.90;;;;;;4411795;28;657717;-70
2021/08/06 03:47:28;;;;;;;3.77;2.30;;;13.30;99.90;;;;;;4420987;28;656588;-70
2021/08/06 03:50:16;;;;;;;2.97;2.50;;;13.30;99.90;;;;;;4427576;28;657823;-70
2021/08/06 03:53:03;;;;;;;3.20;2.70;;;13.20;99.90;;;;;;4399911;28;656461;-68
2021/08/06 03:55:51;;;;;;;3.27;2.40;;;13.20;99.90;;;;;;4432309;28;657566;-69
2021/08/06 03:58:40;;;;;;;2.53;2.20;;;13.30;99.90;;;;;;4414654;28;656959;-69
2021/08/06 04:01:27;;;;;;;2.73;2.30;;;13.30;99.90;;;;;;4422205;28;657181;-71
2021/08/06 04:04:15;;;;;;;2.90;2.60;;;13.30;99.90;;;;;;4407816;28;658385;-70
2021/08/06 04:07:02;;;;;;;2.93;2.40;;;13.30;99.90;;;;;;4428728;28;656838;-70
2021/08/06 04:09:50;;;;;;;3.53;2.30;;;13.30;99.90;;;;;;4393445;28;657951;-68
2021/08/06 04:12:37;;;;;;;2.67;2.40;;;13.30;99.90;;;;;;4442460;28;656333;-69
2021/08/06 04:15:26;;;;;;;2.23;2.03;;;13.30;99.90;;;;;;4412418;28;658293;-68
2021/08/06 04:18:14;;;;;;;2.60;2.40;;;13.20;99.90;;;;;;4408764;28;656243;-68
2021/08/06 04:21:01;;;;;;;3.17;2.63;;;13.30;99.90;;;;;;4424647;28;657311;-68
2021/08/06 04:23:49;;;;;;;3.47;3.08;;;13.30;99.90;;;;;;4401163;28;656297;-69
2021/08/06 04:26:37;;;;;;;5.67;3.20;;;13.30;99.90;;;;;;4428342;28;656350;-70
2021/08/06 04:29:24;;;;;;;3.93;3.30;;;13.30;99.90;;;;;;4419941;28;656561;-70
2021/08/06 04:32:13;;;;;;;4.30;3.13;;;13.30;99.90;;;;;;4427494;28;656610;-70
2021/08/06 04:35:01;;;;;;;3.30;2.67;;;13.30;99.90;;;;;;4408186;28;657325;-69
2021/08/06 04:37:49;;;;;;;4.23;3.60;;;13.30;99.90;;;;;;4408710;28;657021;-70
2021/08/06 04:40:38;;;;;;;4.00;3.60;;;13.30;99.90;;;;;;4437212;28;656974;-69
2021/08/06 04:43:25;;;;;;;4.80;3.13;;;13.30;99.90;;;;;;4399845;28;657288;-71
2021/08/06 04:46:14;;;;;;;4.97;3.93;;;13.30;99.90;;;;;;4420791;28;657149;-70
2021/08/06 04:49:03;;;;;;;4.97;4.40;;;13.30;99.90;;;;;;4436083;28;656577;-70
2021/08/06 04:51:51;;;;;;;4.70;3.73;;;13.30;99.90;;;;;;4416821;28;657573;-70
2021/08/06 04:54:39;;;;;;;7.13;4.20;;;13.30;99.90;;;;;;4412827;28;657049;-70
2021/08/06 04:57:26;;;;;;;5.57;5.07;;;13.30;99.90;;;;;;4417329;28;657224;-69
2021/08/06 05:00:15;;;;;;;5.10;4.60;;;13.30;99.90;;;;;;4398871;28;657409;-70
2021/08/06 05:03:02;;;;;;;6.83;4.80;;;13.30;99.90;;;;;;4426099;28;656141;-70
2021/08/06 05:05:51;;;;;;;5.63;5.00;;;13.30;99.90;;;;;;4405159;28;657511;-70
2021/08/06 05:08:42;;;;;;;4.60;3.87;;;13.30;99.90;;;;;;4403549;28;656349;-69
2021/08/06 05:11:29;;;;;;;6.00;5.03;;;13.30;99.90;;;;;;4393505;28;656603;-70
2021/08/06 05:14:17;;;;;;;5.73;4.60;;;13.30;99.90;;;;;;4428482;28;656247;-70
2021/08/06 05:17:05;;;;;;;6.40;4.90;;;13.30;99.90;;;;;;4408678;28;657501;-69
2021/08/06 05:19:52;;;;;;;6.07;4.70;;;13.30;99.90;;;;;;4418315;28;656569;-71
2021/08/06 05:22:41;;;;;;;5.03;4.50;;;13.30;99.90;;;;;;4403310;28;658077;-70
2021/08/06 05:25:29;;;;;;;4.83;4.30;;;13.30;99.90;;;;;;4404172;28;656894;-70
2021/08/06 05:28:16;;;;;;;4.60;4.10;;;13.30;99.90;;;;;;4422332;28;656950;-71
2021/08/06 05:31:04;;;;;;;10.33;4.83;;;13.40;99.90;;;;;;4416848;28;656850;-71
2021/08/06 05:33:52;;;;;;;2.80;2.57;;;13.40;99.90;;;;;;4432987;28;657448;-70
2021/08/06 05:36:39;;;;;;;5.73;4.83;;;13.30;99.90;;;;;;4405505;28;656369;-72
2021/08/06 05:39:28;;;;;;;6.87;3.50;;;13.40;99.90;;;;;;4431255;28;656892;-71
2021/08/06 05:42:16;;;;;;;4.97;4.40;;;13.40;99.90;;;;;;4399830;28;657301;-70
2021/08/06 05:45:04;;;;;;;5.63;4.63;;;13.40;99.90;;;;;;4406673;28;657622;-70
2021/08/06 05:47:52;;;;;;;5.03;4.00;;;13.40;99.90;;;;;;4429791;28;656697;-69
2021/08/06 05:50:40;;;;;;;4.80;4.30;;;13.40;99.90;;;;;;4407596;28;658050;-70
2021/08/06 05:53:28;;;;;;;5.55;4.22;;;13.50;99.90;;;;;;4399711;28;657066;-71
2021/08/06 05:56:17;;;;;;;4.27;3.87;;;13.50;99.90;;;;;;4427318;28;657371;-70
2021/08/06 05:59:05;;;;;;;5.90;3.60;;;13.50;99.90;;;;;;4402028;28;658094;-70
2021/08/06 06:01:52;;;;;;;4.43;3.57;;;13.60;99.90;;;;;;4438060;28;657114;-68
2021/08/06 06:04:40;;;;;;;4.43;3.40;;;13.60;99.90;;;;;;4413304;28;657424;-69
2021/08/06 06:07:28;;;;;;;4.67;3.73;;;13.50;99.90;;;;;;4434558;28;656855;-69
2021/08/06 06:10:21;;;;;;;4.78;3.80;;;13.50;99.90;;;;;;4425722;28;658021;-68
2021/08/06 06:13:10;;;;;;;3.83;3.10;;;13.50;99.90;;;;;;4385328;28;657261;-68
2021/08/06 06:15:57;;;;;;;8.40;3.60;;;13.50;99.90;;;;;;4426444;28;657223;-69
2021/08/06 06:18:45;;;;;;;4.07;3.13;;;13.40;99.90;;;;;;4408364;28;657985;-68
2021/08/06 06:21:32;;;;;;;5.17;3.30;;;13.40;99.90;;;;;;4424510;28;657140;-69
2021/08/06 06:24:20;;;;;;;3.47;2.90;;;13.40;99.90;;;;;;4408185;28;658144;-68
2021/08/06 06:27:09;;;;;;;4.30;3.07;;;13.40;99.90;;;;;;4437512;28;656561;-68
2021/08/06 06:29:58;;;;;;;4.63;3.10;;;13.40;99.90;;;;;;4420687;28;656643;-68
2021/08/06 06:32:46;;;;;;;6.70;2.97;;;13.40;99.90;;;;;;4420869;28;657171;-68
2021/08/06 06:35:33;;;;;;;4.60;3.47;;;13.40;99.90;;;;;;4401445;28;656310;-69
2021/08/06 06:38:21;;;;;;;4.57;3.17;;;13.40;99.90;;;;;;4418592;28;656662;-68
2021/08/06 06:41:08;;;;;;;3.43;2.90;;;13.40;99.90;;;;;;4413507;28;656732;-68
2021/08/06 06:43:56;;;;;;;2.83;2.47;;;13.40;99.90;;;;;;4425133;28;656966;-68
2021/08/06 06:46:45;;;;;;;3.73;2.50;;;13.40;99.90;;;;;;4408977;28;656569;-68
2021/08/06 06:49:32;;;;;;;3.97;2.53;;;13.40;99.90;;;;;;4421907;28;657056;-68
2021/08/06 06:52:20;;;;;;;3.47;2.90;;;13.40;99.90;;;;;;4399804;28;656991;-68
2021/08/06 06:55:09;;;;;;;3.33;2.90;;;13.40;99.90;;;;;;4437082;28;657040;-68
2021/08/06 06:57:57;;;;;;;3.03;2.63;;;13.40;99.90;;;;;;4424122;28;657026;-69
2021/08/06 07:00:44;;;;;;;4.63;2.87;;;13.40;99.90;;;;;;4395422;28;656966;-68
2021/08/06 07:03:34;;;;;;;7.15;3.20;;;13.50;99.90;;;;;;4432886;28;656380;-68
2021/08/06 07:06:21;;;;;;;5.27;3.10;;;13.50;99.90;;;;;;4418102;28;657855;-69
2021/08/06 07:09:09;;;;;;;3.70;3.17;;;13.50;99.90;;;;;;4400846;28;656398;-68
2021/08/06 07:11:57;;;;;;;4.07;3.40;;;13.50;99.90;;;;;;4418387;28;657040;-68
2021/08/06 07:14:45;;;;;;;3.77;3.43;;;13.50;99.90;;;;;;4400092;28;659211;-68
2021/08/06 07:17:33;;;;;;;3.93;3.53;;;13.50;99.90;;;;;;4425283;28;656184;-68
2021/08/06 07:20:22;;;;;;;5.90;3.73;;;13.50;99.90;;;;;;4414877;28;657520;-68
2021/08/06 07:23:10;;;;;;;3.93;3.53;;;13.60;99.90;;;;;;4391651;28;658238;-69
2021/08/06 07:25:57;;;;;;;3.80;3.40;;;13.60;99.90;;;;;;4426983;28;657104;-69
2021/08/06 07:28:45;;;;;;;4.07;3.07;;;13.70;99.90;;;;;;4407939;28;657220;-68
2021/08/06 07:31:33;;;;;;;4.07;3.67;;;13.70;99.90;;;;;;4438303;28;657665;-68
2021/08/06 07:34:21;;;;;;;3.87;3.30;;;13.70;99.90;;;;;;4436194;28;656653;-68
2021/08/06 07:37:10;;;;;;;4.13;2.97;;;13.70;99.90;;;;;;4426257;28;656526;-68
2021/08/06 07:39:58;;;;;;;3.57;3.20;;;13.70;99.90;;;;;;4422925;28;656615;-68
2021/08/06 07:42:46;;;;;;;4.70;3.73;;;13.80;99.90;;;;;;4418678;28;656433;-68
2021/08/06 07:45:36;;;;;;;5.53;3.40;;;13.90;99.90;;;;;;4395968;28;656719;-68
2021/08/06 07:48:24;;;;;;;5.50;3.17;;;13.90;99.90;;;;;;4410368;28;656757;-68
2021/08/06 07:51:11;;;;;;;3.90;3.10;;;14.00;99.90;;;;;;4420433;28;657540;-68
2021/08/06 07:54:02;;;;;;;3.27;2.97;;;14.00;99.90;;;;;;4413271;28;656612;-68
2021/08/06 07:56:50;;;;;;;4.80;3.90;;;14.10;99.90;;;;;;4408594;28;656574;-67
2021/08/06 07:59:38;;;;;;;3.90;3.50;;;14.10;99.90;;;;;;4414257;28;656851;-68
2021/08/06 08:02:26;;;;;;;4.17;3.77;;;14.30;99.90;;;;;;4419660;28;657536;-68
2021/08/06 08:05:14;;;;;;;6.23;3.17;;;14.30;99.90;;;;;;4420121;28;656507;-68
2021/08/06 08:08:02;;;;;;;3.55;3.05;;;14.30;99.90;;;;;;4422468;28;656875;-68
2021/08/06 08:10:51;;;;;;;4.87;3.00;;;14.30;99.90;;;;;;4394751;28;658006;-68
2021/08/06 08:13:39;;;;;;;6.03;3.40;;;14.30;99.90;;;;;;4407025;28;656513;-68
2021/08/06 08:16:26;;;;;;;5.30;4.13;;;14.30;99.90;;;;;;4422370;28;657195;-68
2021/08/06 08:19:14;;;;;;;4.47;4.00;;;14.40;99.90;;;;;;4400096;28;656558;-68
2021/08/06 08:22:01;;;;;;;5.00;3.60;;;14.60;99.90;;;;;;4414599;28;656350;-68
2021/08/06 08:24:49;;;;;;;4.63;3.80;;;14.60;99.90;;;;;;4404122;28;656673;-68
2021/08/06 08:27:38;;;;;;;7.17;4.53;;;14.80;99.90;;;;;;4417358;28;656767;-68
2021/08/06 08:30:26;;;;;;;4.93;3.90;;;14.80;99.90;;;;;;4403989;28;657595;-68
2021/08/06 08:33:15;;;;;;;5.67;4.10;;;15.00;99.90;;;;;;4398687;28;656947;-68
2021/08/06 08:36:04;;;;;;;7.63;4.10;;;15.00;99.90;;;;;;4411903;28;657105;-68
2021/08/06 08:38:52;;;;;;;6.27;4.57;;;14.90;99.90;;;;;;4427904;28;656357;-68
2021/08/06 08:41:39;;;;;;;8.30;4.13;;;14.80;99.90;;;;;;4410548;28;656038;-68
2021/08/06 08:44:28;;;;;;;9.10;5.10;;;14.70;99.90;;;;;;4436424;28;656075;-68
2021/08/06 08:47:21;;;;;;;7.13;5.67;;;14.70;99.90;;;;;;4399975;28;657310;-68
2021/08/06 08:50:09;;;;;;;8.50;5.77;;;14.60;99.90;;;;;;4383679;28;658006;-68
2021/08/06 08:52:57;;;;;;;8.20;6.87;;;14.50;99.90;;;;;;4430629;28;657481;-68
2021/08/06 08:55:44;;;;;;;7.43;5.90;;;14.50;99.90;;;;;;4429657;28;656986;-68
2021/08/06 08:58:32;;;;;;;9.83;7.23;;;14.50;99.90;;;;;;4416845;28;656406;-68
2021/08/06 09:01:21;;;;;;;9.07;6.93;;;14.40;99.90;;;;;;4401854;28;656303;-68
2021/08/06 09:04:24;;;;;;;10.10;6.63;;;14.50;99.90;;;;;;4407583;28;656614;-68
2021/08/06 09:07:18;;;;;;;9.27;6.13;;;14.60;99.90;;;;;;4394459;28;657666;-68
2021/08/06 09:10:10;;;;;;;7.53;6.13;;;14.80;99.90;;;;;;4410453;28;656786;-68
2021/08/06 09:12:59;;;;;;;6.57;4.63;;;15.20;99.90;;;;;;4406801;28;656555;-68
2021/08/06 09:15:48;;;;;;;5.53;4.27;;;15.80;99.90;;;;;;4449895;28;656325;-69
2021/08/06 09:18:38;;;;;;;6.13;3.50;;;16.20;99.90;;;;;;4414762;28;657880;-68
2021/08/06 09:21:25;;;;;;;6.50;3.07;;;16.50;99.90;;;;;;4410522;28;657363;-68
2021/08/06 09:24:13;;;;;;;5.60;2.90;;;16.60;99.90;;;;;;4405410;28;656446;-68
2021/08/06 09:27:01;;;;;;;6.63;2.53;;;16.80;99.90;;;;;;4434687;28;656759;-68
2021/08/06 09:29:48;;;;;;;3.90;2.67;;;16.60;99.90;;;;;;4420820;28;656258;-68
2021/08/06 09:32:50;;;;;;;3.93;2.33;;;16.30;99.90;;;;;;4420705;28;657038;-69
2021/08/06 09:35:39;;;;;;;3.70;2.93;;;16.10;99.90;;;;;;4400822;28;656949;-68
2021/08/06 09:38:26;;;;;;;4.00;2.67;;;15.90;99.90;;;;;;4408772;28;656905;-68
2021/08/06 09:41:38;;;;;;;4.33;2.80;;;15.80;99.90;;;;;;4405662;28;656759;-68
2021/08/06 09:44:27;;;;;;;4.20;3.10;;;15.90;99.90;;;;;;4401298;28;657176;-68
2021/08/06 09:47:21;;;;;;;4.33;3.20;;;15.90;99.90;;;;;;4402229;28;656625;-68
2021/08/06 09:50:10;;;;;;;4.10;2.97;;;16.00;99.90;;;;;;4379220;28;657091;-68
2021/08/06 09:53:00;;;;;;;5.63;2.77;;;16.00;99.90;;;;;;4410377;28;656736;-68
2021/08/06 09:55:49;;;;;;;3.70;2.70;;;15.80;99.90;;;;;;4426598;28;657307;-68
2021/08/06 09:58:37;;;;;;;5.40;3.03;;;15.60;99.90;;;;;;4436105;28;656738;-69
2021/08/06 10:01:25;;;;;;;4.20;3.13;;;15.40;99.90;;;;;;4418476;28;657977;-68
2021/08/06 10:04:16;;;;;;;3.73;3.00;;;15.10;99.90;;;;;;4433127;28;656217;-68
2021/08/06 10:07:04;;;;;;;5.37;3.50;;;15.00;99.90;;;;;;4420798;28;657237;-68
2021/08/06 10:09:53;;;;;;;4.83;3.60;;;15.10;99.90;;;;;;4416024;28;656490;-68
2021/08/06 10:12:41;;;;;;;5.73;3.60;;;15.30;99.90;;;;;;4393396;28;657048;-68
2021/08/06 10:15:29;;;;;;;3.90;2.80;;;15.30;99.90;;;;;;4413598;28;657012;-68
2021/08/06 10:18:16;;;;;;;3.30;1.80;;;15.20;99.90;;;;;;4430536;28;657611;-68
2021/08/06 10:21:04;;;;;;;4.40;1.87;;;14.80;99.90;;;;;;4413871;28;656839;-68
2021/08/06 10:23:51;;;;;;;3.10;1.27;;;14.60;99.90;;;;;;4424606;28;657120;-67
2021/08/06 10:26:42;;;;;;;1.70;1.60;;;14.40;99.90;;;;;;4402445;28;656315;-68
2021/08/06 10:29:30;;;;;;;2.33;1.60;;;14.20;99.90;;;;;;4400291;28;657658;-68
2021/08/06 10:32:18;;;;;;;1.47;1.30;;;14.10;99.90;;;;;;4415142;28;656166;-68
2021/08/06 10:35:19;;;;;;;3.73;1.43;;;14.10;99.90;;;;;;4427409;28;657364;-67
2021/08/06 10:38:06;;;;;;;2.17;1.47;;;14.30;99.90;;;;;;4399487;28;657229;-67
2021/08/06 10:40:58;;;;;;;1.60;1.43;;;14.60;99.90;;;;;;4406897;28;657133;-67
2021/08/06 10:43:53;;;;;;;1.50;1.17;;;14.80;99.90;;;;;;4400520;28;657338;-67
2021/08/06 10:47:02;;;;;;;3.17;1.53;;;15.20;99.90;;;;;;4399754;28;656900;-68
2021/08/06 10:50:14;;;;;;;1.47;1.37;;;15.70;99.90;;;;;;4425405;28;657012;-68
2021/08/06 10:53:20;;;;;;;4.13;1.47;;;16.10;99.90;;;;;;4403981;28;656475;-68
2021/08/06 10:56:28;;;;;;;2.63;1.30;;;16.40;99.90;;;;;;4394424;28;656416;-68
2021/08/06 10:59:23;;;;;;;3.40;1.40;;;16.50;99.90;;;;;;4399443;28;657184;-68
2021/08/06 11:02:37;;;;;;;1.23;1.13;;;16.70;99.90;;;;;;4384156;28;657276;-67
2021/08/06 11:05:36;;;;;;;2.50;1.20;;;16.60;99.90;;;;;;4368372;28;657241;-68
2021/08/06 11:08:46;;;;;;;1.20;1.10;;;16.70;99.90;;;;;;4389760;28;656746;-68
2021/08/06 11:11:55;;;;;;;3.77;1.30;;;16.80;99.90;;;;;;4395561;28;657344;-67
2021/08/06 11:14:53;;;;;;;1.23;1.13;;;16.90;99.90;;;;;;4411456;28;656400;-67
2021/08/06 11:17:47;;;;;;;1.33;1.23;;;16.90;99.90;;;;;;4413904;28;656804;-69
2021/08/06 11:20:38;;;;;;;2.93;1.37;;;17.00;99.90;;;;;;4402523;28;657165;-68
2021/08/06 11:23:26;;;;;;;1.77;1.57;;;16.60;99.90;;;;;;4408258;28;657877;-68
2021/08/06 11:26:13;;;;;;;2.50;1.70;;;16.30;99.90;;;;;;4412198;28;656802;-68
2021/08/06 11:29:12;;;;;;;3.55;1.58;;;16.10;99.90;;;;;;4409328;28;657110;-68
2021/08/06 11:32:03;;;;;;;3.67;1.97;;;16.20;99.90;;;;;;4395211;28;656669;-68
2021/08/06 11:34:52;;;;;;;3.43;1.90;;;16.10;99.90;;;;;;4401582;28;657511;-68
2021/08/06 11:37:47;;;;;;;3.20;1.90;;;15.80;99.90;;;;;;4400427;28;657479;-68
2021/08/06 11:40:35;;;;;;;3.97;1.87;;;15.60;99.90;;;;;;4399056;28;656713;-68
2021/08/06 11:43:24;;;;;;;5.30;2.00;;;15.50;99.90;;;;;;4427081;28;657297;-68
2021/08/06 11:46:12;;;;;;;3.23;2.20;;;15.30;99.90;;;;;;4444966;28;656958;-68
2021/08/06 11:49:01;;;;;;;2.97;2.13;;;15.10;99.90;;;;;;4419952;28;657753;-68
2021/08/06 11:51:50;;;;;;;3.87;2.20;;;15.00;99.90;;;;;;4412492;28;656451;-68
2021/08/06 11:54:38;;;;;;;3.23;2.33;;;14.90;99.90;;;;;;4405302;28;656946;-68
2021/08/06 11:57:26;;;;;;;3.83;1.90;;;15.00;99.90;;;;;;4430395;28;658554;-68
2021/08/06 12:00:21;;;;;;;3.10;2.00;;;15.10;99.90;;;;;;4407029;28;657055;-68
2021/08/06 12:03:11;;;;;;;4.13;1.93;;;15.40;99.90;;;;;;4408393;28;656890;-68
2021/08/06 12:06:01;;;;;;;2.03;1.83;;;15.50;99.90;;;;;;4408243;28;656901;-68
2021/08/06 12:08:48;;;;;;;3.57;2.10;;;15.50;99.90;;;;;;4399037;28;656106;-68
2021/08/06 12:11:43;;;;;;;3.47;2.35;;;15.60;99.90;;;;;;4439373;28;657683;-68
2021/08/06 12:14:31;;;;;;;2.10;1.80;;;15.70;99.90;;;;;;4397180;28;656756;-68
2021/08/06 12:17:22;;;;;;;4.13;1.90;;;15.90;99.90;;;;;;4417159;28;656878;-68
2021/08/06 12:20:10;;;;;;;3.30;1.97;;;16.20;99.90;;;;;;4404411;28;656530;-68
2021/08/06 12:23:00;;;;;;;1.90;1.57;;;16.80;99.90;;;;;;4428993;28;657174;-68
2021/08/06 12:26:04;;;;;;;2.37;1.60;;;17.60;99.90;;;;;;4436299;28;656867;-69
2021/08/06 12:28:52;;;;;;;1.90;1.60;;;18.40;99.90;;;;;;4426396;28;657497;-68
2021/08/06 12:31:50;;;;;;;2.73;1.77;;;18.80;99.90;;;;;;4420795;28;657385;-69
2021/08/06 12:34:39;;;;;;;9.30;2.07;;;18.80;99.90;;;;;;4397303;28;656716;-67
2021/08/06 12:37:34;;;;;;;2.73;1.83;;;18.60;99.90;;;;;;4421973;28;657038;-68
2021/08/06 12:40:23;;;;;;;3.20;1.60;;;18.60;99.90;;;;;;4427729;28;657174;-69
2021/08/06 12:43:20;;;;;;;2.30;1.20;;;18.60;99.90;;;;;;4400840;28;657976;-68
2021/08/06 12:46:15;;;;;;;2.30;1.37;;;18.30;99.90;;;;;;4408919;28;657613;-69
2021/08/06 12:49:06;;;;;;;3.03;1.40;;;18.10;99.90;;;;;;4421121;28;657344;-68
2021/08/06 12:51:58;;;;;;;2.90;1.20;;;18.10;99.90;;;;;;4396263;28;656205;-68
2021/08/06 12:54:48;;;;;;;3.37;1.20;;;18.20;99.90;;;;;;4428556;28;657486;-69
2021/08/06 12:57:45;;;;;;;2.27;1.13;;;18.70;99.90;;;;;;4412406;28;657889;-68
2021/08/06 13:00:34;;;;;;;1.07;0.90;;;19.10;99.90;;;;;;4398657;28;656615;-68
2021/08/06 13:03:22;;;;;;;1.57;1.00;;;19.20;99.90;;;;;;4425981;28;656586;-68
2021/08/06 13:06:09;;;;;;;3.03;1.10;;;18.90;99.90;;;;;;4416681;28;657513;-68
2021/08/06 13:08:57;;;;;;;4.77;1.00;;;18.80;99.90;;;;;;4431019;28;657016;-68
2021/08/06 13:12:09;;;;;;;1.43;1.10;;;18.80;99.90;;;;;;4410908;28;657893;-68
2021/08/06 13:14:58;;;;;;;2.70;1.20;;;18.70;99.90;;;;;;4411338;28;656768;-68
2021/08/06 13:17:46;;;;;;;1.37;1.10;;;18.90;99.90;;;;;;4410117;28;657130;-68
2021/08/06 13:20:35;;;;;;;1.70;1.10;;;19.20;99.90;;;;;;4407073;28;656390;-67
2021/08/06 13:23:23;;;;;;;1.40;1.00;;;19.50;99.90;;;;;;4406637;28;656246;-69
2021/08/06 13:26:11;;;;;;;1.30;1.10;;;19.60;99.90;;;;;;4438949;28;658610;-67
2021/08/06 13:28:59;;;;;;;1.33;1.13;;;19.80;99.90;;;;;;4401039;28;657012;-68
2021/08/06 13:31:48;;;;;;;1.77;1.20;;;19.50;99.90;;;;;;4428447;28;657637;-68
2021/08/06 13:34:36;;;;;;;1.53;1.10;;;19.40;99.90;;;;;;4410690;28;657564;-68
2021/08/06 13:37:24;;;;;;;4.23;1.17;;;19.40;99.90;;;;;;4407419;28;656680;-68
2021/08/06 13:40:13;;;;;;;5.00;1.10;;;19.10;99.90;;;;;;4429330;28;656551;-68
2021/08/06 13:43:01;;;;;;;1.47;1.20;;;18.90;99.90;;;;;;4407801;28;657621;-68
2021/08/06 13:45:49;;;;;;;1.53;1.00;;;18.60;99.90;;;;;;4398670;28;656316;-68
2021/08/06 13:48:38;;;;;;;1.20;1.10;;;18.20;99.90;;;;;;4425948;28;657829;-68
2021/08/06 13:51:25;;;;;;;2.97;1.40;;;18.00;99.90;;;;;;4403294;28;657737;-68
2021/08/06 13:54:13;;;;;;;1.85;1.13;;;17.90;99.90;;;;;;4414289;28;656786;-67
2021/08/06 13:57:01;;;;;;;2.10;1.00;;;17.70;99.90;;;;;;4445913;28;657772;-67
2021/08/06 13:59:48;;;;;;;1.23;1.03;;;17.70;99.90;;;;;;4414906;28;656224;-68
2021/08/06 14:02:36;;;;;;;4.40;1.20;;;17.70;99.90;;;;;;4433308;28;657241;-68
2021/08/06 14:05:25;;;;;;;2.70;1.23;;;17.80;99.90;;;;;;4403510;28;657009;-68
2021/08/06 14:08:13;;;;;;;5.60;1.20;;;18.00;99.90;;;;;;4431505;28;656633;-68
2021/08/06 14:11:01;;;;;;;0.93;0.90;;;18.00;99.90;;;;;;4426983;28;657601;-68
2021/08/06 14:13:48;;;;;;;1.23;1.00;;;17.80;99.90;;;;;;4410346;28;656674;-68
2021/08/06 14:16:36;;;;;;;3.53;0.93;;;17.70;99.90;;;;;;4424218;28;657279;-68
2021/08/06 14:19:24;;;;;;;1.93;1.00;;;17.50;99.90;;;;;;4398462;28;656600;-68
2021/08/06 14:22:13;;;;;;;1.60;0.83;;;17.20;99.90;;;;;;4428439;28;657666;-68
2021/08/06 14:25:00;;;;;;;7.53;1.40;;;17.10;99.90;;;;;;4406800;28;657175;-68
2021/08/06 14:27:48;;;;;;;1.70;1.10;;;17.70;99.90;;;;;;4410058;28;656290;-68
2021/08/06 14:30:36;;;;;;;2.27;1.10;;;18.20;99.90;;;;;;4432202;28;656613;-68